Time;durP1;ratioP1;P1;durP2;ratioP2;P2;SDS_P1;SDS_P2;PMS_P1;PMS_P2;Temp;Humidity;BMP_temperature;BMP_pressure;BME280_temperature;BME280_humidity;BME280_pressure;Samples;Min_cycle;Max_cycle;Signal;HPM_P1;HPM_P2
2022/05/30 00:00:57;;;;;;;3.13;1.80;;;11.10;99.90;;;11.00;74.55;100485.78;5030834;23;20829;31
2022/05/30 00:03:28;;;;;;;2.17;1.73;;;11.10;99.90;;;11.10;74.39;100486.16;4960755;28;20467;-67
2022/05/30 00:05:56;;;;;;;2.27;1.77;;;11.10;99.90;;;11.05;74.59;100483.25;4959804;28;20422;-67
2022/05/30 00:08:26;;;;;;;2.50;1.80;;;11.00;99.90;;;10.89;74.97;100482.69;4967359;28;20976;-66
2022/05/30 00:10:55;;;;;;;3.20;2.47;;;11.00;99.90;;;10.73;75.94;100475.06;4964864;28;20435;-68
2022/05/30 00:13:24;;;;;;;1.97;1.60;;;10.90;99.90;;;10.67;75.98;100486.72;4959318;28;20444;-67
2022/05/30 00:15:57;;;;;;;3.67;2.40;;;10.80;99.90;;;10.61;76.38;100476.75;4957850;28;20475;-68
2022/05/30 00:18:29;;;;;;;2.80;1.90;;;10.80;99.90;;;10.45;77.07;100483.47;4948300;28;20986;-70
2022/05/30 00:20:58;;;;;;;4.30;2.37;;;10.70;99.90;;;10.42;77.60;100480.31;4957165;28;20464;-69
2022/05/30 00:23:27;;;;;;;4.33;2.27;;;10.60;99.90;;;10.38;77.60;100477.22;4986436;28;20446;-69
2022/05/30 00:25:56;;;;;;;3.00;1.70;;;10.60;99.90;;;10.26;78.10;100481.59;4984522;28;20461;-69
2022/05/30 00:28:25;;;;;;;3.15;2.05;;;10.50;99.90;;;10.19;78.87;100494.31;4977933;28;20450;-69
2022/05/30 00:30:54;;;;;;;3.57;2.40;;;10.40;99.90;;;10.16;79.04;100486.63;4971763;28;20219;-69
2022/05/30 00:33:23;;;;;;;1.97;1.60;;;10.30;99.90;;;10.03;79.26;100484.72;4986187;28;20558;-69
2022/05/30 00:35:54;;;;;;;2.63;2.13;;;10.30;99.90;;;9.94;79.98;100494.06;4985503;28;20434;-70
2022/05/30 00:38:23;;;;;;;3.00;1.90;;;10.20;99.90;;;10.00;79.92;100498.66;4982947;28;20745;-69
2022/05/30 00:40:52;;;;;;;4.53;3.00;;;10.20;99.90;;;9.94;80.36;100494.06;4980313;28;20473;-69
2022/05/30 00:43:28;;;;;;;2.47;1.67;;;10.10;99.90;;;9.95;80.71;100498.44;4983647;28;20461;-69
2022/05/30 00:46:00;;;;;;;4.00;1.93;;;10.10;99.90;;;9.99;80.63;100499.69;4981340;28;20252;-69
2022/05/30 00:48:34;;;;;;;4.20;2.57;;;10.10;99.90;;;10.12;80.59;100501.53;4964631;28;20447;-69
2022/05/30 00:51:11;;;;;;;1.73;1.40;;;10.20;99.90;;;10.27;79.95;100504.06;4972259;28;20470;-69
2022/05/30 00:53:40;;;;;;;5.15;2.17;;;10.30;99.90;;;10.21;80.15;100502.22;4973946;28;20199;-69
2022/05/30 00:56:13;;;;;;;2.92;1.80;;;10.30;99.90;;;10.23;80.29;100500.13;4976446;28;20769;-69
2022/05/30 00:58:49;;;;;;;3.97;2.58;;;10.30;99.90;;;10.31;80.02;100502.63;4967991;28;20200;-69
2022/05/30 01:01:20;;;;;;;3.90;2.10;;;10.40;99.90;;;10.50;79.67;100507.19;5001286;28;20249;-69
2022/05/30 01:06:45;;;;;;;2.27;1.60;;;10.60;99.90;;;10.72;78.82;100500.44;4976886;28;20437;-69
2022/05/30 01:09:18;;;;;;;2.55;1.80;;;10.70;99.90;;;10.78;78.23;100499.59;4986786;28;20565;-70
2022/05/30 01:11:54;;;;;;;2.23;1.87;;;10.70;99.90;;;10.86;77.68;100499.38;5004420;28;20221;-70
2022/05/30 01:14:26;;;;;;;2.17;1.73;;;10.80;99.90;;;10.94;77.48;100497.47;4986093;28;20451;-69
2022/05/30 01:16:56;;;;;;;2.30;1.80;;;10.80;99.90;;;10.92;77.67;100496.84;4982883;28;20552;-69
2022/05/30 01:19:56;;;;;;;2.17;1.77;;;10.90;99.90;;;10.90;77.37;100492.47;4995464;28;20458;-69
2022/05/30 01:23:07;;;;;;;1.83;1.63;;;10.90;99.90;;;10.97;77.20;100491.63;4998671;28;20470;-69
2022/05/30 01:26:21;;;;;;;2.03;1.87;;;10.90;99.90;;;11.00;76.72;100488.47;4995814;28;20455;-68
2022/05/30 01:29:05;;;;;;;1.73;1.33;;;11.00;99.90;;;11.09;76.62;100500.72;5011740;28;20457;-69
2022/05/30 01:31:34;;;;;;;1.70;1.60;;;11.00;99.90;;;11.12;76.62;100498.44;5012057;28;20471;-69
2022/05/30 01:34:03;;;;;;;2.80;1.70;;;11.10;99.90;;;11.10;76.40;100492.41;4978515;28;20485;-69
2022/05/30 01:36:35;;;;;;;2.73;1.40;;;11.10;99.90;;;11.20;76.49;100491.94;4980015;28;20453;-69
2022/05/30 01:39:05;;;;;;;2.20;1.80;;;11.10;99.90;;;11.15;76.59;100494.44;4977808;28;20465;-69
2022/05/30 01:41:46;;;;;;;4.17;2.10;;;11.10;99.90;;;11.07;76.81;100494.72;4989760;28;20569;-69
2022/05/30 01:44:17;;;;;;;6.67;3.43;;;11.10;99.90;;;11.22;76.15;100489.84;5005557;28;20445;-69
2022/05/30 01:46:46;;;;;;;2.30;1.87;;;11.20;99.90;;;11.12;76.84;100501.16;4976206;28;20911;-70
2022/05/30 01:49:16;;;;;;;3.07;2.20;;;11.10;99.90;;;11.03;77.08;100502.44;4988505;28;20420;-70
2022/05/30 01:51:46;;;;;;;3.10;2.67;;;11.00;99.90;;;11.05;77.07;100494.06;4971869;28;20880;-68
2022/05/30 01:54:16;;;;;;;4.27;2.60;;;11.00;99.90;;;11.11;77.06;100490.53;4977909;28;20530;-69
2022/05/30 01:57:06;;;;;;;2.37;2.00;;;11.00;99.90;;;11.09;76.99;100490.72;4984902;28;20473;-69
2022/05/30 01:59:45;;;;;;;2.80;2.17;;;11.10;99.90;;;11.16;77.21;100485.28;4978712;28;20933;-69
2022/05/30 02:02:28;;;;;;;2.20;2.00;;;11.10;99.90;;;11.19;77.00;100482.97;4972244;28;20478;-68
2022/05/30 02:04:57;;;;;;;5.30;2.60;;;11.10;99.90;;;11.20;76.39;100486.50;4971745;28;20585;-69
2022/05/30 02:07:26;;;;;;;3.50;1.90;;;11.10;99.90;;;11.10;77.26;100494.28;4979526;28;20457;-69
2022/05/30 02:09:55;;;;;;;4.00;2.73;;;11.10;99.90;;;11.02;77.44;100494.53;4994850;28;20443;-68
2022/05/30 02:12:25;;;;;;;3.20;2.57;;;11.00;99.90;;;11.01;77.64;100482.03;4968549;28;20523;-69
2022/05/30 02:15:18;;;;;;;3.80;3.00;;;11.00;99.90;;;11.04;77.63;100485.13;4967467;28;20458;-69
2022/05/30 02:17:50;;;;;;;3.30;2.20;;;11.00;99.90;;;11.11;77.35;100487.81;4974910;28;20892;-69
2022/05/30 02:20:20;;;;;;;3.00;2.50;;;11.00;99.90;;;10.97;78.18;100488.91;4979123;28;20180;-68
2022/05/30 02:22:49;;;;;;;11.50;2.10;;;11.00;99.90;;;10.97;78.48;100480.78;4990071;28;20451;-68
2022/05/30 02:25:18;;;;;;;2.35;2.05;;;10.90;99.90;;;10.92;78.81;100480.59;5000299;28;20286;-68
2022/05/30 02:27:47;;;;;;;2.40;2.10;;;10.90;99.90;;;10.95;78.68;100483.72;4974681;28;20282;-68
2022/05/30 02:30:18;;;;;;;4.57;3.30;;;10.90;99.90;;;10.88;79.47;100489.16;4973906;28;20808;-68
2022/05/30 02:36:38;;;;;;;2.80;2.17;;;10.90;99.90;;;10.83;80.08;100491.69;4973101;28;20470;-68
2022/05/30 02:38:23;;;;;;;2.27;2.07;;;10.80;99.90;;;10.74;80.38;100492.13;4989062;28;20760;-68
2022/05/30 02:41:12;;;;;;;9.10;2.47;;;10.70;99.90;;;10.64;80.69;100487.16;4971035;28;20518;-68
2022/05/30 02:43:55;;;;;;;3.20;2.50;;;10.60;99.90;;;10.58;80.58;100490.72;4976716;28;20205;-69
2022/05/30 02:46:26;;;;;;;4.70;2.70;;;10.60;99.90;;;10.52;80.88;100491.53;4980907;28;20444;-68
2022/05/30 02:48:55;;;;;;;3.27;2.60;;;10.50;99.90;;;10.52;81.08;100488.84;4998361;28;20226;-69
2022/05/30 02:51:25;;;;;;;4.10;2.43;;;10.50;99.90;;;10.49;81.38;100494.69;4972637;28;20490;-70
2022/05/30 02:53:54;;;;;;;7.20;3.10;;;10.50;99.90;;;10.50;81.67;100492.81;4984233;28;20845;-68
2022/05/30 02:56:43;;;;;;;3.67;2.45;;;10.50;99.90;;;10.47;82.24;100491.34;4969128;28;20439;-68
2022/05/30 02:59:12;;;;;;;5.32;2.80;;;10.50;99.90;;;10.51;82.30;100497.16;4977631;28;20215;-69
2022/05/30 03:01:50;;;;;;;3.92;2.95;;;10.50;99.90;;;10.55;82.25;100493.84;4981544;28;20246;-68
2022/05/30 03:04:20;;;;;;;2.53;2.33;;;10.50;99.90;;;10.57;82.41;100494.44;4996546;28;20637;-69
2022/05/30 03:06:49;;;;;;;3.87;2.70;;;10.50;99.90;;;10.68;82.31;100499.22;4979587;28;20206;-69
2022/05/30 03:09:19;;;;;;;4.17;2.70;;;10.60;99.90;;;10.76;81.98;100495.44;4981132;28;20457;-68
2022/05/30 03:12:09;;;;;;;6.13;3.40;;;10.60;99.90;;;10.81;81.26;100504.59;4982459;28;20795;-68
2022/05/30 03:14:37;;;;;;;3.40;3.00;;;10.70;99.90;;;10.96;80.98;100509.75;4973175;28;20842;-69
2022/05/30 03:17:08;;;;;;;4.97;3.47;;;10.80;99.90;;;10.82;80.48;100500.84;4966793;28;21114;-69
2022/05/30 03:19:40;;;;;;;14.52;4.10;;;10.70;99.90;;;10.82;80.61;100502.72;4978075;28;21038;-69
2022/05/30 03:22:09;;;;;;;4.03;3.20;;;10.80;99.90;;;10.84;80.84;100504.16;4979048;28;20223;-69
2022/05/30 03:24:57;;;;;;;3.30;2.63;;;10.70;99.90;;;10.83;80.97;100516.03;4989437;28;20442;-69
2022/05/30 03:27:26;;;;;;;3.83;3.17;;;10.80;99.90;;;10.86;80.42;100518.31;4985302;28;20457;-68
2022/05/30 03:29:55;;;;;;;5.03;3.40;;;10.80;99.90;;;10.81;80.75;100518.13;4990537;28;20461;-69
2022/05/30 03:32:25;;;;;;;3.97;3.33;;;10.70;99.90;;;10.84;80.52;100514.97;4985238;28;20215;-68
2022/05/30 03:34:54;;;;;;;4.73;3.37;;;10.70;99.90;;;10.65;81.19;100521.28;4984685;28;20457;-68
2022/05/30 03:37:23;;;;;;;7.03;2.88;;;10.60;99.90;;;10.73;81.61;100518.34;4979695;28;20444;-69
2022/05/30 03:40:00;;;;;;;3.57;3.00;;;10.60;99.90;;;10.71;81.85;100512.31;4978890;28;20673;-69
2022/05/30 03:42:48;;;;;;;6.82;3.20;;;10.60;99.90;;;10.76;81.98;100522.50;4972713;28;20443;-70
2022/05/30 03:45:23;;;;;;;9.30;4.65;;;10.70;99.90;;;10.71;82.74;100520.44;4978083;28;20326;-69
2022/05/30 03:47:53;;;;;;;4.50;3.28;;;10.70;99.90;;;10.98;82.42;100514.94;4984566;28;20198;-69
2022/05/30 03:50:25;;;;;;;3.93;3.53;;;10.70;99.90;;;11.08;82.00;100505.34;4985723;28;20632;-69
2022/05/30 03:53:04;;;;;;;7.03;4.13;;;10.80;99.90;;;11.17;81.97;100509.47;4972719;28;20810;-69
2022/05/30 03:55:42;;;;;;;6.00;3.95;;;11.00;99.90;;;11.14;81.93;100511.75;4973217;28;20477;-69
2022/05/30 03:58:14;;;;;;;5.00;3.17;;;11.00;99.90;;;10.89;83.23;100509.75;4974479;28;20285;-69
2022/05/30 04:00:46;;;;;;;8.10;4.83;;;10.90;99.90;;;11.06;83.32;100503.88;4971638;28;20466;-69
2022/05/30 04:03:20;;;;;;;6.03;4.13;;;10.80;99.90;;;10.82;83.46;100508.97;4965848;28;20885;-69
2022/05/30 04:05:48;;;;;;;8.32;5.00;;;10.80;99.90;;;10.73;83.67;100502.13;4975409;28;20202;-68
2022/05/30 04:08:18;;;;;;;6.07;5.18;;;10.70;99.90;;;10.71;83.47;100498.78;4982546;28;20195;-68
2022/05/30 04:11:05;;;;;;;13.27;6.45;;;10.60;99.90;;;10.88;82.92;100505.41;4981925;28;20216;-69
2022/05/30 04:13:53;;;;;;;10.52;5.03;;;10.70;99.90;;;11.41;80.74;100504.34;4972695;28;20268;-68
2022/05/30 04:16:41;;;;;;;6.55;4.97;;;10.90;99.90;;;11.34;80.54;100507.06;4975699;28;20214;-68
2022/05/30 04:19:15;;;;;;;14.40;5.37;;;10.90;99.90;;;11.10;81.40;100507.81;4973266;28;20211;-69
2022/05/30 04:21:44;;;;;;;6.95;4.25;;;10.90;99.90;;;10.93;81.32;100512.06;4972070;28;20461;-69
2022/05/30 04:24:16;;;;;;;8.70;4.73;;;10.80;99.90;;;11.00;81.71;100512.84;4975217;28;20205;-70
2022/05/30 04:26:55;;;;;;;7.80;4.78;;;10.70;99.90;;;10.90;81.88;100519.53;4967621;28;20455;-69
2022/05/30 04:29:23;;;;;;;13.70;4.45;;;10.70;99.90;;;10.82;82.22;100522.50;4968719;28;20199;-69
2022/05/30 04:32:09;;;;;;;10.15;4.50;;;10.70;99.90;;;11.21;82.08;100531.53;4972639;28;20223;-69
2022/05/30 04:34:40;;;;;;;7.93;5.30;;;10.80;99.90;;;11.36;81.92;100523.94;4962954;28;20283;-67
2022/05/30 04:37:10;;;;;;;9.03;5.30;;;10.90;99.90;;;11.36;80.48;100529.38;4978546;28;20465;-68
2022/05/30 04:39:42;;;;;;;11.13;4.50;;;11.00;99.90;;;11.29;79.67;100533.97;4987749;28;21069;-68
2022/05/30 04:42:31;;;;;;;8.70;4.33;;;11.00;99.90;;;11.54;79.22;100525.94;4981162;28;20847;-69
2022/05/30 04:45:39;;;;;;;6.18;4.57;;;11.10;99.90;;;11.91;78.74;100532.41;4923373;29;20484;-69
2022/05/30 04:48:18;;;;;;;10.40;4.17;;;11.30;99.90;;;11.72;76.98;100535.00;4923378;29;20312;-69
2022/05/30 04:50:48;;;;;;;5.20;3.63;;;11.30;99.90;;;11.59;77.69;100534.25;4957728;28;21027;-70
2022/05/30 04:53:17;;;;;;;5.23;3.50;;;11.30;99.90;;;11.39;79.18;100534.34;4974490;28;20876;-68
2022/05/30 04:56:09;;;;;;;7.93;4.40;;;11.10;99.90;;;11.43;79.22;100529.31;4992963;28;20465;-69
2022/05/30 04:58:50;;;;;;;7.50;3.80;;;11.20;99.90;;;11.50;78.88;100536.38;4987793;28;20510;-70
2022/05/30 05:01:21;;;;;;;7.00;3.80;;;11.20;99.90;;;11.63;78.80;100539.00;4974434;28;20487;-70
2022/05/30 05:03:50;;;;;;;8.10;3.53;;;11.30;99.90;;;11.45;77.65;100540.78;4988260;28;20451;-69
2022/05/30 05:06:21;;;;;;;6.33;3.20;;;11.30;99.90;;;11.27;78.69;100547.75;4967810;28;20458;-69
2022/05/30 05:09:00;;;;;;;7.23;3.60;;;11.10;99.90;;;11.27;78.48;100544.22;4979782;28;20462;-69
2022/05/30 05:11:38;;;;;;;7.70;3.90;;;11.10;99.90;;;11.27;78.81;100547.75;4968166;28;20470;-69
2022/05/30 05:14:19;;;;;;;13.32;4.50;;;11.00;99.90;;;11.28;78.73;100545.84;4980483;28;20442;-69
2022/05/30 05:16:57;;;;;;;4.43;3.87;;;11.00;99.90;;;11.30;79.17;100554.59;4972470;28;20273;-69
2022/05/30 05:19:27;;;;;;;4.67;3.77;;;11.00;99.90;;;11.28;78.72;100553.97;4980734;28;20468;-68
2022/05/30 05:21:57;;;;;;;7.50;3.50;;;11.00;99.90;;;11.33;79.13;100567.72;4981022;28;20499;-70
2022/05/30 05:24:26;;;;;;;5.00;3.60;;;11.10;99.90;;;11.38;78.96;100559.75;4983838;28;20442;-69
2022/05/30 05:27:10;;;;;;;4.87;3.90;;;11.10;99.90;;;11.33;79.81;100562.28;4967321;28;20444;-69
2022/05/30 05:29:40;;;;;;;7.23;4.60;;;11.00;99.90;;;11.34;79.51;100563.97;4968663;28;20469;-69
2022/05/30 05:32:10;;;;;;;8.17;4.67;;;11.10;99.90;;;11.36;78.91;100567.28;4975903;28;20467;-69
2022/05/30 05:34:40;;;;;;;11.03;5.00;;;11.10;99.90;;;11.49;79.20;100567.22;4966497;28;20413;-69
2022/05/30 05:37:10;;;;;;;4.80;3.90;;;11.20;99.90;;;11.37;77.11;100568.97;4981264;28;20450;-69
2022/05/30 05:39:49;;;;;;;15.30;5.43;;;11.10;99.90;;;11.48;77.12;100565.56;4977754;28;20482;-69
2022/05/30 05:42:18;;;;;;;7.07;4.43;;;11.20;99.90;;;11.53;76.83;100554.91;4969905;28;20467;-68
2022/05/30 05:44:49;;;;;;;12.40;4.50;;;11.20;99.90;;;11.55;76.82;100571.78;4965705;28;20819;-69
2022/05/30 05:47:18;;;;;;;8.67;4.83;;;11.20;99.90;;;11.82;77.39;100566.22;4967747;28;20417;-69
2022/05/30 05:49:47;;;;;;;7.27;4.87;;;11.40;99.90;;;11.92;76.98;100572.00;4981783;28;20526;-69
2022/05/30 05:52:18;;;;;;;19.77;5.27;;;11.60;99.90;;;12.24;76.20;100565.53;4970639;28;20483;-69
2022/05/30 05:54:47;;;;;;;5.37;3.53;;;11.80;99.90;;;12.47;73.03;100563.03;4977686;28;20450;-68
2022/05/30 05:57:17;;;;;;;10.70;4.50;;;11.90;99.90;;;12.62;72.18;100568.94;4984036;28;20450;-68
2022/05/30 05:59:51;;;;;;;8.63;4.13;;;12.10;99.90;;;12.44;71.73;100560.75;4980333;28;20760;-67
2022/05/30 06:02:20;;;;;;;10.03;3.40;;;12.20;99.90;;;12.69;71.56;100557.19;5110970;23;20480;-72
2022/05/30 06:04:51;;;;;;;4.40;3.47;;;12.20;99.90;;;13.14;70.75;100569.47;5023430;28;20440;-73
2022/05/30 06:08:01;;;;;;;8.40;3.83;;;12.50;99.90;;;13.30;70.56;100570.75;4976255;28;20459;-72
2022/05/30 06:11:08;;;;;;;4.97;3.47;;;12.70;99.90;;;13.09;71.24;100566.56;4972037;28;20458;-72
2022/05/30 06:13:42;;;;;;;5.27;3.57;;;12.70;99.90;;;13.03;73.03;100570.19;4995204;28;20882;-71
2022/05/30 06:16:14;;;;;;;6.77;3.53;;;12.60;99.90;;;12.56;72.28;100572.56;5020404;28;20436;-72
2022/05/30 06:18:48;;;;;;;5.90;4.10;;;12.30;99.90;;;12.35;74.44;100578.38;5033337;28;20867;-71
2022/05/30 06:21:19;;;;;;;5.70;3.40;;;12.10;99.90;;;12.18;75.71;100577.25;5015099;28;20463;-72
2022/05/30 06:23:53;;;;;;;4.33;3.93;;;11.90;99.90;;;12.16;74.75;100580.19;5020382;28;20342;-73
2022/05/30 06:27:03;;;;;;;5.03;3.83;;;12.00;99.90;;;12.11;74.87;100585.44;5024044;28;20455;-71
2022/05/30 06:29:52;;;;;;;7.63;4.13;;;11.90;99.90;;;12.11;74.90;100587.31;5020104;28;20949;-72
2022/05/30 06:32:22;;;;;;;4.30;3.50;;;11.90;99.90;;;12.09;75.38;100589.44;5019691;28;20504;-72
2022/05/30 06:35:02;;;;;;;4.37;3.77;;;11.70;99.90;;;12.10;74.71;100591.09;5031563;28;20499;-72
2022/05/30 06:37:33;;;;;;;7.83;4.50;;;11.70;99.90;;;12.03;75.62;100590.31;5032734;28;20875;-72
2022/05/30 06:40:05;;;;;;;4.40;3.80;;;11.70;99.90;;;12.14;74.29;100598.56;5027377;28;20470;-74
2022/05/30 06:42:43;;;;;;;7.97;4.70;;;11.70;99.90;;;12.15;74.78;100596.69;5020197;28;20488;-73
2022/05/30 06:45:30;;;;;;;7.93;3.90;;;11.80;99.90;;;12.18;75.38;100593.53;5020901;28;20447;-72
2022/05/30 06:48:17;;;;;;;6.80;3.90;;;11.80;99.90;;;12.22;74.72;100599.34;5018365;28;20424;-73
2022/05/30 06:50:59;;;;;;;6.27;4.50;;;11.80;99.90;;;11.92;72.50;100596.41;5022004;28;20824;-71
2022/05/30 06:53:28;;;;;;;4.70;4.27;;;11.70;99.90;;;11.94;73.79;100597.88;5032526;28;20503;-73
2022/05/30 06:56:01;;;;;;;11.43;3.77;;;11.70;99.90;;;12.02;72.60;100599.47;5034798;28;20444;-71
2022/05/30 06:58:36;;;;;;;6.10;3.47;;;11.70;99.90;;;12.32;71.57;100599.69;5025404;28;20507;-71
2022/05/30 07:01:05;;;;;;;6.43;4.60;;;12.00;99.90;;;12.22;71.32;100602.88;5025642;28;20534;-71
2022/05/30 07:03:36;;;;;;;9.60;4.00;;;12.00;99.90;;;12.25;69.83;100598.94;5019452;28;20457;-73
2022/05/30 07:06:27;;;;;;;7.33;4.07;;;12.10;99.90;;;12.25;70.19;100604.34;5018152;28;20591;-71
2022/05/30 07:09:06;;;;;;;11.70;4.37;;;12.10;99.90;;;12.60;70.53;100606.34;5022438;28;20937;-71
2022/05/30 07:11:56;;;;;;;6.40;3.90;;;12.10;99.90;;;12.88;68.09;100607.75;5004443;28;20473;-72
2022/05/30 07:14:26;;;;;;;8.07;4.27;;;12.40;99.90;;;12.64;68.89;100607.53;5025938;28;20958;-71
2022/05/30 07:16:55;;;;;;;7.10;4.80;;;12.20;99.90;;;12.64;68.43;100604.00;5021560;28;20435;-72
2022/05/30 07:19:24;;;;;;;10.10;3.90;;;12.30;99.90;;;12.36;69.75;100612.59;5035591;28;20449;-73
2022/05/30 07:21:59;;;;;;;11.10;5.17;;;12.20;99.90;;;12.27;70.64;100611.19;5024459;28;20486;-71
2022/05/30 07:24:48;;;;;;;7.93;3.83;;;12.00;99.90;;;12.22;69.26;100612.91;4961696;28;20806;-72
2022/05/30 07:27:38;;;;;;;4.20;3.13;;;12.10;99.90;;;12.04;69.83;100611.78;5024013;28;20419;-72
2022/05/30 07:30:25;;;;;;;5.53;4.20;;;11.80;99.90;;;12.41;69.05;100612.75;5007062;28;20542;-72
2022/05/30 07:33:13;;;;;;;9.37;3.60;;;12.10;99.90;;;12.49;67.67;100612.47;5022157;28;20938;-72
2022/05/30 07:36:02;;;;;;;8.50;4.10;;;12.20;99.90;;;12.42;67.52;100616.31;5023076;28;20439;-72
2022/05/30 07:38:57;;;;;;;6.07;3.50;;;12.20;99.90;;;12.64;67.72;100618.41;4994649;28;20453;-73
2022/05/30 07:41:55;;;;;;;5.07;4.30;;;12.30;99.90;;;12.95;66.75;100619.38;5034200;28;20480;-73
2022/05/30 07:44:37;;;;;;;9.50;3.27;;;12.50;99.90;;;13.21;67.21;100626.47;5034811;28;20584;-72
2022/05/30 07:47:22;;;;;;;10.13;3.70;;;12.60;99.90;;;13.03;65.99;100630.78;5025830;28;20464;-72
2022/05/30 07:50:11;;;;;;;12.37;3.97;;;12.70;99.90;;;12.82;66.40;100627.66;5014730;28;20727;-72
2022/05/30 07:53:03;;;;;;;7.60;4.70;;;12.70;99.90;;;12.70;67.22;100626.72;5017854;28;20441;-72
2022/05/30 07:55:41;;;;;;;4.80;3.23;;;12.60;99.90;;;12.64;67.05;100631.16;5044376;28;20837;-73
2022/05/30 07:58:10;;;;;;;8.70;4.00;;;12.40;99.90;;;12.60;66.36;100633.47;5022546;28;20453;-72
2022/05/30 08:00:49;;;;;;;10.30;4.00;;;12.40;99.90;;;12.91;66.69;100635.31;5024204;28;20993;-74
2022/05/30 08:03:25;;;;;;;3.17;2.87;;;12.50;99.90;;;13.14;66.17;100642.81;5022746;28;20474;-71
2022/05/30 08:06:25;;;;;;;10.60;3.90;;;12.60;99.90;;;13.39;66.15;100640.06;5006245;28;20845;-72
2022/05/30 08:09:13;;;;;;;7.80;3.27;;;12.80;99.90;;;13.17;65.05;100647.81;5000921;28;20429;-71
2022/05/30 08:11:59;;;;;;;3.33;3.03;;;12.70;99.90;;;13.29;65.36;100654.16;5035000;28;20555;-73
2022/05/30 08:14:48;;;;;;;8.10;3.77;;;12.90;99.90;;;13.42;63.85;100656.72;5025406;28;20503;-71
2022/05/30 08:17:19;;;;;;;6.27;3.30;;;13.00;97.90;;;13.39;62.37;100662.63;5012318;28;20712;-73
2022/05/30 08:19:49;;;;;;;3.77;2.77;;;13.10;92.40;;;13.38;63.03;100660.97;5020285;28;20441;-73
2022/05/30 08:22:23;;;;;;;5.40;2.70;;;13.00;93.40;;;13.36;61.32;100660.34;5025473;28;20457;-74
2022/05/30 08:24:53;;;;;;;7.23;4.97;;;13.10;81.30;;;13.55;62.39;100654.94;5034485;28;20456;-72
2022/05/30 08:27:25;;;;;;;5.97;3.43;;;13.10;90.30;;;13.88;60.70;100658.91;5017200;28;20517;-72
2022/05/30 08:30:02;;;;;;;6.20;2.60;;;13.30;79.20;;;14.26;59.51;100664.00;5034647;28;20990;-73
2022/05/30 08:32:38;;;;;;;4.63;2.00;;;13.60;68.40;;;14.69;58.44;100657.50;5016472;28;20469;-72
2022/05/30 08:35:12;;;;;;;6.87;3.83;;;14.10;58.80;;;14.66;58.19;100657.97;5020427;28;20431;-74
2022/05/30 08:37:43;;;;;;;4.97;3.17;;;14.30;50.40;;;14.86;56.92;100650.31;5045118;28;20521;-74
2022/05/30 08:43:17;;;;;;;6.03;2.60;;;14.70;39.60;;;15.26;56.17;100663.19;5011216;28;20437;-71
2022/05/30 08:46:08;;;;;;;7.00;2.50;;;14.80;39.10;;;15.72;55.51;100665.06;5040579;28;20431;-73
2022/05/30 08:49:06;;;;;;;5.80;2.30;;;15.10;38.30;;;15.58;55.32;100661.78;5023925;28;20498;-74
2022/05/30 08:51:59;;;;;;;6.50;2.73;;;15.30;31.40;;;15.42;54.41;100662.47;5047735;28;20496;-71
2022/05/30 08:54:50;;;;;;;9.47;2.80;;;15.40;26.30;;;14.88;56.55;100667.22;5029697;28;20453;-73
2022/05/30 08:57:41;;;;;;;4.00;2.67;;;15.00;29.00;;;14.69;56.90;100674.69;5040006;28;20452;-72
2022/05/30 09:00:20;;;;;;;10.90;7.97;;;14.60;31.10;;;14.95;57.47;100673.41;5006503;28;20495;-72
2022/05/30 09:03:31;;;;;;;7.20;4.30;;;14.60;36.60;;;14.99;54.76;100669.16;5022024;28;20443;-72
2022/05/30 09:06:12;;;;;;;5.07;2.30;;;14.80;26.70;;;14.54;55.96;100674.28;5039928;28;20429;-71
2022/05/30 09:08:47;;;;;;;4.80;3.17;;;14.60;26.50;;;14.12;57.00;100673.44;5021246;28;20422;-72
2022/05/30 09:11:43;;;;;;;5.07;3.33;;;14.20;29.20;;;14.32;57.79;100668.53;5018424;28;20435;-73
2022/05/30 09:14:26;;;;;;;2.80;2.07;;;14.10;34.90;;;14.50;56.65;100675.00;5017538;28;20503;-73
2022/05/30 09:17:03;;;;;;;7.87;3.50;;;14.20;31.80;;;14.44;56.70;100665.03;5040133;28;20535;-71
2022/05/30 09:19:34;;;;;;;10.50;2.87;;;14.20;31.70;;;14.67;55.79;100665.06;5033817;28;20493;-72
2022/05/30 09:22:09;;;;;;;4.03;2.27;;;14.50;28.70;;;15.42;55.04;100667.94;5023899;28;20446;-75
2022/05/30 09:27:43;;;;;;;3.07;1.80;;;15.50;27.90;;;15.93;51.04;100654.28;5008048;28;20429;-72
2022/05/30 09:30:42;;;;;;;4.90;1.20;;;15.70;17.80;;;15.78;51.12;100659.44;5015358;28;20988;-73
2022/05/30 09:33:35;;;;;;;1.90;1.80;;;15.70;16.20;;;16.14;51.20;100651.97;5017279;28;20509;-72
2022/05/30 09:36:26;;;;;;;2.30;1.57;;;15.90;17.10;;;16.63;49.51;100653.97;5016597;28;20494;-72
2022/05/30 09:39:22;;;;;;;6.73;1.80;;;16.40;15.10;;;16.31;50.84;100655.56;5008389;28;20489;-72
2022/05/30 09:41:58;;;;;;;2.20;1.77;;;16.10;15.00;;;16.58;50.96;100651.16;5035335;28;20899;-71
2022/05/30 09:44:41;;;;;;;1.80;1.60;;;16.20;16.00;;;17.31;49.38;100642.72;5019836;28;20437;-72
2022/05/30 09:47:36;;;;;;;2.70;1.93;;;16.70;15.10;;;17.21;49.28;100649.97;5019523;28;20416;-72
2022/05/30 09:50:22;;;;;;;3.47;1.80;;;16.90;13.20;;;17.50;49.22;100651.47;5026503;28;20453;-72
2022/05/30 09:52:53;;;;;;;8.83;1.67;;;17.00;13.50;;;16.51;50.34;100650.44;5021312;28;20449;-72
2022/05/30 09:55:37;;;;;;;2.70;1.73;;;16.60;11.90;;;15.98;51.11;100646.22;5023257;28;20470;-72
2022/05/30 09:58:13;;;;;;;2.13;1.57;;;16.10;12.10;;;16.22;50.26;100640.63;5034354;28;20883;-71
2022/05/30 10:01:04;;;;;;;4.70;2.17;;;16.20;12.10;;;16.43;50.12;100650.88;5009481;28;20972;-72
2022/05/30 10:03:40;;;;;;;4.00;2.17;;;16.30;12.60;;;16.18;50.99;100647.66;5031498;28;20453;-72
2022/05/30 10:06:32;;;;;;;2.27;1.23;;;16.10;12.60;;;15.55;50.87;100640.41;4989074;28;20834;-72
2022/05/30 10:09:24;;;;;;;2.20;1.30;;;15.70;11.50;;;15.65;51.83;100652.38;5021396;28;20422;-71
2022/05/30 10:12:01;;;;;;;2.27;1.70;;;15.70;13.50;;;16.23;50.16;100648.59;5027942;28;20447;-71
2022/05/30 10:14:39;;;;;;;2.60;2.00;;;16.00;12.50;;;15.69;51.09;100644.53;5025650;28;20433;-74
2022/05/30 10:17:32;;;;;;;3.87;1.80;;;15.70;12.00;;;16.12;50.57;100633.09;5031533;28;20428;-72
2022/05/30 10:20:15;;;;;;;4.83;2.90;;;15.80;13.20;;;16.43;48.24;100634.47;5006613;28;20444;-72
2022/05/30 10:30:49;;;;;;;1.83;1.70;;;16.20;8.50;;;16.54;47.99;100639.03;5008969;28;20959;-73
2022/05/30 10:34:08;;;;;;;2.63;1.13;;;16.20;8.30;;;16.69;46.88;100641.25;5039796;28;20418;-73
2022/05/30 10:36:58;;;;;;;2.73;1.47;;;16.40;6.80;;;16.60;46.19;100645.47;5028372;28;20476;-71
2022/05/30 10:40:06;;;;;;;3.00;1.43;;;16.50;5.50;;;16.88;45.79;100640.72;5017440;28;20436;-71
2022/05/30 10:42:46;;;;;;;6.37;1.90;;;16.40;4.50;;;17.07;44.54;100638.56;4975215;28;20578;-72
2022/05/30 10:45:23;;;;;;;2.17;1.37;;;16.60;2.80;;;17.02;45.17;100634.91;5032346;28;20928;-73
2022/05/30 10:47:57;;;;;;;2.13;1.10;;;16.70;3.00;;;16.99;45.82;100649.94;5008463;28;20422;-72
2022/05/30 10:50:43;;;;;;;4.50;1.30;;;16.80;4.10;;;16.39;45.72;100644.25;5010181;28;20435;-72
2022/05/30 10:53:39;;;;;;;1.40;1.10;;;16.40;2.40;;;17.08;44.17;100651.16;5013562;28;20426;-71
2022/05/30 10:56:32;;;;;;;3.30;1.50;;;16.60;2.10;;;17.19;43.77;100652.09;5012959;28;20445;-71
2022/05/30 10:59:17;;;;;;;1.53;1.00;;;16.80;1.10;;;16.75;43.73;100651.19;5013812;28;20449;-72
2022/05/30 11:01:54;;;;;;;1.37;0.80;;;16.80;1.00;;;17.42;43.12;100645.59;5024143;28;21039;-72
2022/05/30 11:04:39;;;;;;;2.33;1.30;;;17.00;1.00;;;17.98;42.79;100649.88;5025059;28;20416;-72
2022/05/30 11:07:27;;;;;;;3.03;0.93;;;17.50;1.00;;;17.98;41.29;100656.19;5025123;28;20523;-72
2022/05/30 11:10:06;;;;;;;1.40;1.10;;;17.70;1.00;;;16.67;44.19;100654.31;5031767;28;20483;-72
2022/05/30 11:12:43;;;;;;;2.13;1.20;;;17.00;1.00;;;16.81;45.19;100651.00;5013203;28;20435;-71
2022/05/30 11:15:25;;;;;;;4.23;1.47;;;16.80;1.00;;;17.79;43.92;100650.22;5024405;28;20447;-73
2022/05/30 11:18:42;;;;;;;1.83;1.00;;;17.30;1.00;;;18.45;41.90;100658.31;5010157;28;20437;-73